sensor_id;sensor_type;location;lat;lon;timestamp;P1;durP1;ratioP1;P2;durP2;ratioP2
20320;SDS011;10318;47.674;9.052;2022-07-03T00:02:11;1.52;;;1.20;;
20320;SDS011;10318;47.674;9.052;2022-07-03T00:04:38;3.78;;;1.00;;
20320;SDS011;10318;47.674;9.052;2022-07-03T00:07:05;1.88;;;0.80;;
20320;SDS011;10318;47.674;9.052;2022-07-03T00:09:32;1.40;;;1.00;;
20320;SDS011;10318;47.674;9.052;2022-07-03T00:11:59;2.33;;;1.30;;
20320;SDS011;10318;47.674;9.052;2022-07-03T00:14:25;1.02;;;0.80;;
20320;SDS011;10318;47.674;9.052;2022-07-03T00:16:52;1.90;;;1.00;;
20320;SDS011;10318;47.674;9.052;2022-07-03T00:19:19;1.30;;;0.90;;
20320;SDS011;10318;47.674;9.052;2022-07-03T00:21:48;1.42;;;1.15;;
20320;SDS011;10318;47.674;9.052;2022-07-03T00:24:24;4.90;;;0.95;;
20320;SDS011;10318;47.674;9.052;2022-07-03T00:26:52;1.33;;;0.90;;
20320;SDS011;10318;47.674;9.052;2022-07-03T00:29:20;2.10;;;1.00;;
20320;SDS011;10318;47.674;9.052;2022-07-03T00:31:47;3.60;;;1.17;;
20320;SDS011;10318;47.674;9.052;2022-07-03T00:34:15;2.33;;;1.15;;
20320;SDS011;10318;47.674;9.052;2022-07-03T00:36:42;3.97;;;1.40;;
20320;SDS011;10318;47.674;9.052;2022-07-03T00:39:11;2.80;;;0.85;;
20320;SDS011;10318;47.674;9.052;2022-07-03T00:41:38;2.78;;;1.20;;
20320;SDS011;10318;47.674;9.052;2022-07-03T00:44:04;3.13;;;1.10;;
20320;SDS011;10318;47.674;9.052;2022-07-03T00:46:31;3.70;;;1.00;;
20320;SDS011;10318;47.674;9.052;2022-07-03T00:49:01;1.70;;;1.00;;
20320;SDS011;10318;47.674;9.052;2022-07-03T00:51:30;1.45;;;1.08;;
20320;SDS011;10318;47.674;9.052;2022-07-03T00:53:57;0.95;;;0.85;;
20320;SDS011;10318;47.674;9.052;2022-07-03T00:56:25;1.77;;;1.13;;
20320;SDS011;10318;47.674;9.052;2022-07-03T00:58:53;1.98;;;1.10;;
20320;SDS011;10318;47.674;9.052;2022-07-03T01:01:21;1.92;;;1.23;;
20320;SDS011;10318;47.674;9.052;2022-07-03T01:03:49;3.92;;;1.13;;
20320;SDS011;10318;47.674;9.052;2022-07-03T01:06:20;2.13;;;1.20;;
20320;SDS011;10318;47.674;9.052;2022-07-03T01:08:49;1.55;;;1.25;;
20320;SDS011;10318;47.674;9.052;2022-07-03T01:11:33;3.92;;;1.38;;
20320;SDS011;10318;47.674;9.052;2022-07-03T01:14:20;2.35;;;1.33;;
20320;SDS011;10318;47.674;9.052;2022-07-03T01:17:16;1.90;;;1.10;;
20320;SDS011;10318;47.674;9.052;2022-07-03T01:19:38;3.70;;;1.40;;
20320;SDS011;10318;47.674;9.052;2022-07-03T01:30:26;3.08;;;1.27;;
20320;SDS011;10318;47.674;9.052;2022-07-03T01:33:03;2.90;;;1.20;;
20320;SDS011;10318;47.674;9.052;2022-07-03T01:35:35;1.50;;;1.20;;
20320;SDS011;10318;47.674;9.052;2022-07-03T01:38:04;1.95;;;1.10;;
20320;SDS011;10318;47.674;9.052;2022-07-03T01:40:31;1.50;;;1.33;;
20320;SDS011;10318;47.674;9.052;2022-07-03T01:42:58;2.47;;;1.23;;
20320;SDS011;10318;47.674;9.052;2022-07-03T01:45:26;1.45;;;1.25;;
20320;SDS011;10318;47.674;9.052;2022-07-03T01:47:54;2.75;;;1.25;;
20320;SDS011;10318;47.674;9.052;2022-07-03T01:50:23;1.35;;;1.17;;
20320;SDS011;10318;47.674;9.052;2022-07-03T01:52:51;2.17;;;1.67;;
20320;SDS011;10318;47.674;9.052;2022-07-03T01:55:18;1.88;;;1.60;;
20320;SDS011;10318;47.674;9.052;2022-07-03T01:57:49;1.50;;;1.40;;
20320;SDS011;10318;47.674;9.052;2022-07-03T02:00:17;2.45;;;1.60;;
20320;SDS011;10318;47.674;9.052;2022-07-03T02:10:11;4.15;;;1.30;;
20320;SDS011;10318;47.674;9.052;2022-07-03T02:12:48;3.15;;;1.30;;
20320;SDS011;10318;47.674;9.052;2022-07-03T02:15:29;1.88;;;1.30;;
20320;SDS011;10318;47.674;9.052;2022-07-03T02:17:57;2.85;;;1.40;;
20320;SDS011;10318;47.674;9.052;2022-07-03T02:20:24;2.95;;;1.60;;
20320;SDS011;10318;47.674;9.052;2022-07-03T02:23:00;1.83;;;1.50;;
20320;SDS011;10318;47.674;9.052;2022-07-03T02:27:57;3.72;;;1.60;;
20320;SDS011;10318;47.674;9.052;2022-07-03T02:30:28;2.63;;;1.50;;
20320;SDS011;10318;47.674;9.052;2022-07-03T02:32:57;3.28;;;1.65;;
20320;SDS011;10318;47.674;9.052;2022-07-03T02:40:34;5.43;;;1.60;;
20320;SDS011;10318;47.674;9.052;2022-07-03T02:43:10;2.03;;;1.48;;
20320;SDS011;10318;47.674;9.052;2022-07-03T02:45:49;2.10;;;1.50;;
20320;SDS011;10318;47.674;9.052;2022-07-03T02:48:40;2.97;;;1.65;;
20320;SDS011;10318;47.674;9.052;2022-07-03T02:51:10;3.88;;;2.20;;
20320;SDS011;10318;47.674;9.052;2022-07-03T02:57:16;1.52;;;1.30;;
20320;SDS011;10318;47.674;9.052;2022-07-03T03:04:44;3.67;;;1.73;;
20320;SDS011;10318;47.674;9.052;2022-07-03T03:07:15;4.72;;;1.50;;
20320;SDS011;10318;47.674;9.052;2022-07-03T03:09:43;1.67;;;1.50;;
20320;SDS011;10318;47.674;9.052;2022-07-03T03:12:11;5.93;;;1.65;;
20320;SDS011;10318;47.674;9.052;2022-07-03T03:17:08;1.73;;;1.25;;
20320;SDS011;10318;47.674;9.052;2022-07-03T03:19:41;5.15;;;1.38;;
20320;SDS011;10318;47.674;9.052;2022-07-03T03:24:51;1.85;;;1.70;;
20320;SDS011;10318;47.674;9.052;2022-07-03T03:27:18;2.88;;;1.52;;
20320;SDS011;10318;47.674;9.052;2022-07-03T03:29:45;4.28;;;1.33;;
20320;SDS011;10318;47.674;9.052;2022-07-03T03:32:12;2.13;;;1.77;;
20320;SDS011;10318;47.674;9.052;2022-07-03T03:34:39;1.75;;;1.50;;
20320;SDS011;10318;47.674;9.052;2022-07-03T03:37:07;2.97;;;1.90;;
20320;SDS011;10318;47.674;9.052;2022-07-03T03:39:34;5.10;;;1.70;;
20320;SDS011;10318;47.674;9.052;2022-07-03T03:42:00;4.30;;;1.52;;
20320;SDS011;10318;47.674;9.052;2022-07-03T03:44:27;5.38;;;1.45;;
20320;SDS011;10318;47.674;9.052;2022-07-03T03:46:54;4.07;;;1.73;;
20320;SDS011;10318;47.674;9.052;2022-07-03T03:49:21;3.83;;;1.55;;
20320;SDS011;10318;47.674;9.052;2022-07-03T03:51:48;1.75;;;1.40;;
20320;SDS011;10318;47.674;9.052;2022-07-03T03:54:14;2.08;;;1.33;;
20320;SDS011;10318;47.674;9.052;2022-07-03T03:56:41;2.22;;;1.52;;
20320;SDS011;10318;47.674;9.052;2022-07-03T03:59:08;5.78;;;1.50;;
20320;SDS011;10318;47.674;9.052;2022-07-03T04:01:35;2.83;;;1.50;;
20320;SDS011;10318;47.674;9.052;2022-07-03T04:04:01;1.67;;;1.45;;
20320;SDS011;10318;47.674;9.052;2022-07-03T04:06:28;2.90;;;1.70;;
20320;SDS011;10318;47.674;9.052;2022-07-03T04:08:55;3.53;;;1.85;;
20320;SDS011;10318;47.674;9.052;2022-07-03T04:11:21;3.80;;;1.60;;
20320;SDS011;10318;47.674;9.052;2022-07-03T04:13:48;3.78;;;1.70;;
20320;SDS011;10318;47.674;9.052;2022-07-03T04:16:15;2.65;;;1.60;;
20320;SDS011;10318;47.674;9.052;2022-07-03T04:18:42;1.70;;;1.60;;
20320;SDS011;10318;47.674;9.052;2022-07-03T04:21:08;2.65;;;2.10;;
20320;SDS011;10318;47.674;9.052;2022-07-03T04:23:35;4.47;;;2.08;;
20320;SDS011;10318;47.674;9.052;2022-07-03T04:26:02;3.97;;;2.13;;
20320;SDS011;10318;47.674;9.052;2022-07-03T04:28:29;4.82;;;2.15;;
20320;SDS011;10318;47.674;9.052;2022-07-03T04:30:56;2.17;;;1.80;;
20320;SDS011;10318;47.674;9.052;2022-07-03T04:33:22;5.25;;;2.08;;
20320;SDS011;10318;47.674;9.052;2022-07-03T04:35:49;2.35;;;2.15;;
20320;SDS011;10318;47.674;9.052;2022-07-03T04:38:16;5.50;;;2.00;;
20320;SDS011;10318;47.674;9.052;2022-07-03T04:40:42;2.50;;;1.90;;
20320;SDS011;10318;47.674;9.052;2022-07-03T04:43:09;2.72;;;1.95;;
20320;SDS011;10318;47.674;9.052;2022-07-03T04:45:36;2.80;;;2.00;;
20320;SDS011;10318;47.674;9.052;2022-07-03T04:48:02;2.78;;;1.90;;
20320;SDS011;10318;47.674;9.052;2022-07-03T04:50:29;6.47;;;2.28;;
20320;SDS011;10318;47.674;9.052;2022-07-03T04:52:56;16.88;;;2.33;;
20320;SDS011;10318;47.674;9.052;2022-07-03T04:55:22;5.53;;;2.20;;
20320;SDS011;10318;47.674;9.052;2022-07-03T04:57:49;3.22;;;2.20;;
20320;SDS011;10318;47.674;9.052;2022-07-03T05:00:16;3.92;;;2.45;;
20320;SDS011;10318;47.674;9.052;2022-07-03T05:02:42;3.85;;;2.10;;
20320;SDS011;10318;47.674;9.052;2022-07-03T05:05:09;7.15;;;2.28;;
20320;SDS011;10318;47.674;9.052;2022-07-03T05:07:36;5.55;;;2.60;;
20320;SDS011;10318;47.674;9.052;2022-07-03T05:10:02;6.25;;;2.55;;
20320;SDS011;10318;47.674;9.052;2022-07-03T05:12:29;4.28;;;2.30;;
20320;SDS011;10318;47.674;9.052;2022-07-03T05:14:56;4.50;;;2.40;;
20320;SDS011;10318;47.674;9.052;2022-07-03T05:17:22;4.03;;;2.20;;
20320;SDS011;10318;47.674;9.052;2022-07-03T05:19:49;2.90;;;2.35;;
20320;SDS011;10318;47.674;9.052;2022-07-03T05:22:35;3.33;;;2.10;;
20320;SDS011;10318;47.674;9.052;2022-07-03T05:25:02;3.05;;;2.17;;
20320;SDS011;10318;47.674;9.052;2022-07-03T05:27:29;6.13;;;2.28;;
20320;SDS011;10318;47.674;9.052;2022-07-03T05:29:55;6.88;;;2.00;;
20320;SDS011;10318;47.674;9.052;2022-07-03T05:32:22;3.47;;;2.13;;
20320;SDS011;10318;47.674;9.052;2022-07-03T05:34:49;3.33;;;1.73;;
20320;SDS011;10318;47.674;9.052;2022-07-03T05:37:15;3.72;;;1.80;;
20320;SDS011;10318;47.674;9.052;2022-07-03T05:39:42;1.88;;;1.70;;
20320;SDS011;10318;47.674;9.052;2022-07-03T05:42:09;2.58;;;1.58;;
20320;SDS011;10318;47.674;9.052;2022-07-03T05:44:36;2.38;;;2.13;;
20320;SDS011;10318;47.674;9.052;2022-07-03T05:47:03;6.80;;;2.40;;
20320;SDS011;10318;47.674;9.052;2022-07-03T05:49:30;2.28;;;1.80;;
20320;SDS011;10318;47.674;9.052;2022-07-03T05:51:56;3.55;;;2.05;;
20320;SDS011;10318;47.674;9.052;2022-07-03T05:54:23;2.53;;;2.10;;
20320;SDS011;10318;47.674;9.052;2022-07-03T05:56:49;2.60;;;1.77;;
20320;SDS011;10318;47.674;9.052;2022-07-03T05:59:16;2.20;;;2.00;;
20320;SDS011;10318;47.674;9.052;2022-07-03T06:01:43;3.75;;;2.00;;
20320;SDS011;10318;47.674;9.052;2022-07-03T06:04:09;3.13;;;1.90;;
20320;SDS011;10318;47.674;9.052;2022-07-03T06:06:36;3.35;;;1.90;;
20320;SDS011;10318;47.674;9.052;2022-07-03T06:09:03;5.35;;;1.83;;
20320;SDS011;10318;47.674;9.052;2022-07-03T06:11:30;3.60;;;2.08;;
20320;SDS011;10318;47.674;9.052;2022-07-03T06:13:56;2.67;;;1.80;;
20320;SDS011;10318;47.674;9.052;2022-07-03T06:16:23;2.53;;;1.90;;
20320;SDS011;10318;47.674;9.052;2022-07-03T06:18:50;3.33;;;2.17;;
20320;SDS011;10318;47.674;9.052;2022-07-03T06:21:16;2.88;;;2.22;;
20320;SDS011;10318;47.674;9.052;2022-07-03T06:23:43;3.78;;;2.08;;
20320;SDS011;10318;47.674;9.052;2022-07-03T06:26:13;3.67;;;1.98;;
20320;SDS011;10318;47.674;9.052;2022-07-03T06:28:40;3.75;;;2.08;;
20320;SDS011;10318;47.674;9.052;2022-07-03T06:31:06;3.28;;;1.77;;
20320;SDS011;10318;47.674;9.052;2022-07-03T06:33:33;4.25;;;1.90;;
20320;SDS011;10318;47.674;9.052;2022-07-03T06:36:00;2.85;;;2.10;;
20320;SDS011;10318;47.674;9.052;2022-07-03T06:38:26;2.20;;;1.80;;
20320;SDS011;10318;47.674;9.052;2022-07-03T06:40:53;4.75;;;2.08;;
20320;SDS011;10318;47.674;9.052;2022-07-03T06:43:20;4.82;;;2.22;;
20320;SDS011;10318;47.674;9.052;2022-07-03T06:45:46;3.08;;;2.63;;
20320;SDS011;10318;47.674;9.052;2022-07-03T06:48:13;5.80;;;2.30;;
20320;SDS011;10318;47.674;9.052;2022-07-03T06:50:40;3.03;;;2.28;;
20320;SDS011;10318;47.674;9.052;2022-07-03T06:53:07;3.55;;;2.47;;
20320;SDS011;10318;47.674;9.052;2022-07-03T06:55:33;5.82;;;2.40;;
20320;SDS011;10318;47.674;9.052;2022-07-03T06:58:00;3.75;;;2.20;;
20320;SDS011;10318;47.674;9.052;2022-07-03T07:00:27;4.28;;;2.03;;
20320;SDS011;10318;47.674;9.052;2022-07-03T07:02:53;6.93;;;2.28;;
20320;SDS011;10318;47.674;9.052;2022-07-03T07:05:25;5.32;;;2.50;;
20320;SDS011;10318;47.674;9.052;2022-07-03T07:07:52;9.30;;;2.28;;
20320;SDS011;10318;47.674;9.052;2022-07-03T07:10:18;4.15;;;2.33;;
20320;SDS011;10318;47.674;9.052;2022-07-03T07:12:45;3.25;;;2.40;;
20320;SDS011;10318;47.674;9.052;2022-07-03T07:15:12;2.60;;;2.40;;
20320;SDS011;10318;47.674;9.052;2022-07-03T07:17:38;3.00;;;2.13;;
20320;SDS011;10318;47.674;9.052;2022-07-03T07:20:05;3.05;;;2.63;;
20320;SDS011;10318;47.674;9.052;2022-07-03T07:22:32;4.22;;;2.97;;
20320;SDS011;10318;47.674;9.052;2022-07-03T07:24:59;9.65;;;3.22;;
20320;SDS011;10318;47.674;9.052;2022-07-03T07:27:25;6.25;;;2.50;;
20320;SDS011;10318;47.674;9.052;2022-07-03T07:29:52;3.13;;;2.28;;
20320;SDS011;10318;47.674;9.052;2022-07-03T07:32:19;3.40;;;2.20;;
20320;SDS011;10318;47.674;9.052;2022-07-03T07:34:45;3.55;;;2.17;;
20320;SDS011;10318;47.674;9.052;2022-07-03T07:37:12;3.83;;;2.20;;
20320;SDS011;10318;47.674;9.052;2022-07-03T07:39:39;2.13;;;1.92;;
20320;SDS011;10318;47.674;9.052;2022-07-03T07:42:05;3.67;;;1.98;;
20320;SDS011;10318;47.674;9.052;2022-07-03T07:44:32;2.70;;;2.20;;
20320;SDS011;10318;47.674;9.052;2022-07-03T07:46:59;2.60;;;1.98;;
20320;SDS011;10318;47.674;9.052;2022-07-03T07:49:25;2.88;;;2.03;;
20320;SDS011;10318;47.674;9.052;2022-07-03T07:51:52;2.88;;;2.00;;
20320;SDS011;10318;47.674;9.052;2022-07-03T07:54:19;5.13;;;2.40;;
20320;SDS011;10318;47.674;9.052;2022-07-03T07:56:46;2.40;;;1.63;;
20320;SDS011;10318;47.674;9.052;2022-07-03T07:59:12;4.20;;;2.10;;
20320;SDS011;10318;47.674;9.052;2022-07-03T08:01:39;2.35;;;1.90;;
20320;SDS011;10318;47.674;9.052;2022-07-03T08:04:24;2.78;;;1.98;;
20320;SDS011;10318;47.674;9.052;2022-07-03T08:07:10;3.38;;;1.90;;
20320;SDS011;10318;47.674;9.052;2022-07-03T08:09:36;4.57;;;2.00;;
20320;SDS011;10318;47.674;9.052;2022-07-03T08:12:03;3.60;;;1.90;;
20320;SDS011;10318;47.674;9.052;2022-07-03T08:14:30;4.45;;;2.30;;
20320;SDS011;10318;47.674;9.052;2022-07-03T08:16:57;3.17;;;2.00;;
20320;SDS011;10318;47.674;9.052;2022-07-03T08:19:24;5.07;;;1.92;;
20320;SDS011;10318;47.674;9.052;2022-07-03T08:21:50;3.28;;;1.95;;
20320;SDS011;10318;47.674;9.052;2022-07-03T08:24:17;5.50;;;2.58;;
20320;SDS011;10318;47.674;9.052;2022-07-03T08:26:44;5.15;;;2.17;;
20320;SDS011;10318;47.674;9.052;2022-07-03T08:29:10;2.78;;;1.88;;
20320;SDS011;10318;47.674;9.052;2022-07-03T08:31:38;3.53;;;2.30;;
20320;SDS011;10318;47.674;9.052;2022-07-03T08:34:04;2.80;;;2.08;;
20320;SDS011;10318;47.674;9.052;2022-07-03T08:36:31;3.78;;;2.25;;
20320;SDS011;10318;47.674;9.052;2022-07-03T08:38:58;3.00;;;2.22;;
20320;SDS011;10318;47.674;9.052;2022-07-03T08:41:26;5.30;;;2.22;;
20320;SDS011;10318;47.674;9.052;2022-07-03T08:43:53;5.18;;;2.25;;
20320;SDS011;10318;47.674;9.052;2022-07-03T08:46:21;3.13;;;2.17;;
20320;SDS011;10318;47.674;9.052;2022-07-03T08:48:47;4.10;;;2.47;;
20320;SDS011;10318;47.674;9.052;2022-07-03T08:51:16;4.43;;;2.33;;
20320;SDS011;10318;47.674;9.052;2022-07-03T08:53:45;1.85;;;1.60;;
20320;SDS011;10318;47.674;9.052;2022-07-03T08:56:13;2.78;;;2.17;;
20320;SDS011;10318;47.674;9.052;2022-07-03T08:58:40;3.47;;;2.22;;
20320;SDS011;10318;47.674;9.052;2022-07-03T09:01:07;2.42;;;1.95;;
20320;SDS011;10318;47.674;9.052;2022-07-03T09:03:34;4.90;;;1.98;;
20320;SDS011;10318;47.674;9.052;2022-07-03T09:06:01;3.10;;;1.95;;
20320;SDS011;10318;47.674;9.052;2022-07-03T09:08:28;2.35;;;1.67;;
20320;SDS011;10318;47.674;9.052;2022-07-03T09:10:58;1.83;;;1.73;;
20320;SDS011;10318;47.674;9.052;2022-07-03T09:13:25;4.28;;;1.90;;
20320;SDS011;10318;47.674;9.052;2022-07-03T09:15:51;4.18;;;2.10;;
20320;SDS011;10318;47.674;9.052;2022-07-03T09:18:18;2.10;;;1.58;;
20320;SDS011;10318;47.674;9.052;2022-07-03T09:21:02;2.17;;;1.60;;
20320;SDS011;10318;47.674;9.052;2022-07-03T09:23:32;1.70;;;1.48;;
20320;SDS011;10318;47.674;9.052;2022-07-03T09:26:02;2.47;;;1.60;;
20320;SDS011;10318;47.674;9.052;2022-07-03T09:31:09;2.83;;;1.67;;
20320;SDS011;10318;47.674;9.052;2022-07-03T09:33:47;1.60;;;1.50;;
20320;SDS011;10318;47.674;9.052;2022-07-03T09:36:14;4.57;;;1.58;;
20320;SDS011;10318;47.674;9.052;2022-07-03T09:38:44;1.77;;;1.60;;
20320;SDS011;10318;47.674;9.052;2022-07-03T09:41:14;2.33;;;1.60;;
20320;SDS011;10318;47.674;9.052;2022-07-03T09:43:41;1.55;;;1.27;;
20320;SDS011;10318;47.674;9.052;2022-07-03T09:46:08;2.45;;;1.35;;
20320;SDS011;10318;47.674;9.052;2022-07-03T09:48:36;2.22;;;1.20;;
20320;SDS011;10318;47.674;9.052;2022-07-03T09:51:20;2.95;;;1.30;;
20320;SDS011;10318;47.674;9.052;2022-07-03T09:56:24;4.30;;;1.27;;
20320;SDS011;10318;47.674;9.052;2022-07-03T10:01:37;2.17;;;1.10;;
20320;SDS011;10318;47.674;9.052;2022-07-03T10:04:12;1.55;;;1.35;;
20320;SDS011;10318;47.674;9.052;2022-07-03T10:09:15;1.63;;;1.30;;
20320;SDS011;10318;47.674;9.052;2022-07-03T10:11:43;2.15;;;1.45;;
20320;SDS011;10318;47.674;9.052;2022-07-03T10:14:14;4.20;;;1.40;;
20320;SDS011;10318;47.674;9.052;2022-07-03T10:16:41;1.67;;;1.20;;
20320;SDS011;10318;47.674;9.052;2022-07-03T10:19:11;3.65;;;1.38;;
20320;SDS011;10318;47.674;9.052;2022-07-03T10:21:38;1.95;;;1.20;;
20320;SDS011;10318;47.674;9.052;2022-07-03T10:24:06;1.50;;;1.17;;
20320;SDS011;10318;47.674;9.052;2022-07-03T10:26:32;1.63;;;1.17;;
20320;SDS011;10318;47.674;9.052;2022-07-03T10:29:00;2.50;;;1.02;;
20320;SDS011;10318;47.674;9.052;2022-07-03T10:31:27;2.63;;;1.20;;
20320;SDS011;10318;47.674;9.052;2022-07-03T10:33:54;3.88;;;1.38;;
20320;SDS011;10318;47.674;9.052;2022-07-03T10:36:22;1.63;;;1.30;;
20320;SDS011;10318;47.674;9.052;2022-07-03T10:38:49;1.85;;;1.60;;
20320;SDS011;10318;47.674;9.052;2022-07-03T10:41:33;2.13;;;1.30;;
20320;SDS011;10318;47.674;9.052;2022-07-03T10:44:19;2.10;;;1.30;;
20320;SDS011;10318;47.674;9.052;2022-07-03T10:47:04;4.22;;;1.40;;
20320;SDS011;10318;47.674;9.052;2022-07-03T10:49:34;1.67;;;1.20;;
20320;SDS011;10318;47.674;9.052;2022-07-03T10:52:01;1.25;;;1.15;;
20320;SDS011;10318;47.674;9.052;2022-07-03T10:54:29;3.80;;;1.40;;
20320;SDS011;10318;47.674;9.052;2022-07-03T10:59:22;1.70;;;1.08;;
20320;SDS011;10318;47.674;9.052;2022-07-03T11:01:49;3.03;;;1.10;;
20320;SDS011;10318;47.674;9.052;2022-07-03T11:05:37;4.40;;;1.50;;
20320;SDS011;10318;47.674;9.052;2022-07-03T11:08:02;1.77;;;1.10;;
20320;SDS011;10318;47.674;9.052;2022-07-03T11:10:31;1.83;;;1.00;;
20320;SDS011;10318;47.674;9.052;2022-07-03T11:25:42;4.68;;;1.98;;
20320;SDS011;10318;47.674;9.052;2022-07-03T11:36:23;2.88;;;1.10;;
20320;SDS011;10318;47.674;9.052;2022-07-03T11:41:27;1.45;;;1.17;;
20320;SDS011;10318;47.674;9.052;2022-07-03T11:43:57;2.17;;;0.85;;
20320;SDS011;10318;47.674;9.052;2022-07-03T11:46:26;2.22;;;1.08;;
20320;SDS011;10318;47.674;9.052;2022-07-03T11:49:06;1.50;;;1.20;;
20320;SDS011;10318;47.674;9.052;2022-07-03T11:51:33;3.17;;;1.15;;
20320;SDS011;10318;47.674;9.052;2022-07-03T11:54:00;3.75;;;1.27;;
20320;SDS011;10318;47.674;9.052;2022-07-03T11:56:27;1.33;;;0.93;;
20320;SDS011;10318;47.674;9.052;2022-07-03T11:58:55;1.98;;;1.23;;
20320;SDS011;10318;47.674;9.052;2022-07-03T12:03:53;2.63;;;0.88;;
20320;SDS011;10318;47.674;9.052;2022-07-03T12:06:20;1.75;;;1.02;;
20320;SDS011;10318;47.674;9.052;2022-07-03T12:08:47;1.10;;;0.90;;
20320;SDS011;10318;47.674;9.052;2022-07-03T12:11:15;1.05;;;0.95;;
20320;SDS011;10318;47.674;9.052;2022-07-03T12:13:42;2.47;;;1.20;;
20320;SDS011;10318;47.674;9.052;2022-07-03T12:16:12;2.78;;;0.93;;
20320;SDS011;10318;47.674;9.052;2022-07-03T12:18:46;1.65;;;0.90;;
20320;SDS011;10318;47.674;9.052;2022-07-03T12:21:14;1.42;;;0.75;;
20320;SDS011;10318;47.674;9.052;2022-07-03T12:23:51;1.27;;;0.77;;
20320;SDS011;10318;47.674;9.052;2022-07-03T12:26:31;0.80;;;0.65;;
20320;SDS011;10318;47.674;9.052;2022-07-03T12:28:58;0.85;;;0.73;;
20320;SDS011;10318;47.674;9.052;2022-07-03T12:31:26;1.88;;;0.93;;
20320;SDS011;10318;47.674;9.052;2022-07-03T12:33:53;0.88;;;0.70;;
20320;SDS011;10318;47.674;9.052;2022-07-03T12:36:20;0.82;;;0.70;;
20320;SDS011;10318;47.674;9.052;2022-07-03T12:38:47;1.30;;;0.80;;
20320;SDS011;10318;47.674;9.052;2022-07-03T12:41:14;4.82;;;0.80;;
20320;SDS011;10318;47.674;9.052;2022-07-03T12:43:42;2.58;;;0.80;;
20320;SDS011;10318;47.674;9.052;2022-07-03T12:48:48;1.63;;;0.75;;
20320;SDS011;10318;47.674;9.052;2022-07-03T12:51:16;3.58;;;0.80;;
20320;SDS011;10318;47.674;9.052;2022-07-03T12:53:43;1.58;;;0.70;;
20320;SDS011;10318;47.674;9.052;2022-07-03T12:56:10;2.20;;;0.68;;
20320;SDS011;10318;47.674;9.052;2022-07-03T12:58:38;0.80;;;0.70;;
20320;SDS011;10318;47.674;9.052;2022-07-03T13:01:28;1.00;;;0.70;;
20320;SDS011;10318;47.674;9.052;2022-07-03T13:03:55;1.20;;;0.80;;
20320;SDS011;10318;47.674;9.052;2022-07-03T13:06:22;1.23;;;0.80;;
20320;SDS011;10318;47.674;9.052;2022-07-03T13:08:54;0.90;;;0.63;;
20320;SDS011;10318;47.674;9.052;2022-07-03T13:11:40;1.17;;;0.70;;
20320;SDS011;10318;47.674;9.052;2022-07-03T13:14:11;1.75;;;0.80;;
20320;SDS011;10318;47.674;9.052;2022-07-03T13:16:42;1.17;;;0.70;;
20320;SDS011;10318;47.674;9.052;2022-07-03T13:19:11;2.70;;;1.00;;
20320;SDS011;10318;47.674;9.052;2022-07-03T13:21:38;2.50;;;1.20;;
20320;SDS011;10318;47.674;9.052;2022-07-03T13:24:06;0.95;;;0.60;;
20320;SDS011;10318;47.674;9.052;2022-07-03T13:26:33;1.70;;;0.90;;
20320;SDS011;10318;47.674;9.052;2022-07-03T13:29:00;0.85;;;0.80;;
20320;SDS011;10318;47.674;9.052;2022-07-03T13:31:27;3.50;;;1.00;;
20320;SDS011;10318;47.674;9.052;2022-07-03T13:33:53;2.22;;;1.00;;
20320;SDS011;10318;47.674;9.052;2022-07-03T13:36:20;2.53;;;0.70;;
20320;SDS011;10318;47.674;9.052;2022-07-03T13:38:47;1.67;;;0.98;;
20320;SDS011;10318;47.674;9.052;2022-07-03T13:41:14;2.17;;;0.90;;
20320;SDS011;10318;47.674;9.052;2022-07-03T13:43:41;3.88;;;0.80;;
20320;SDS011;10318;47.674;9.052;2022-07-03T13:46:10;3.40;;;0.90;;
20320;SDS011;10318;47.674;9.052;2022-07-03T13:48:37;3.90;;;0.82;;
20320;SDS011;10318;47.674;9.052;2022-07-03T13:51:04;1.33;;;0.93;;
20320;SDS011;10318;47.674;9.052;2022-07-03T13:53:31;8.52;;;1.00;;
20320;SDS011;10318;47.674;9.052;2022-07-03T13:55:58;0.70;;;0.65;;
20320;SDS011;10318;47.674;9.052;2022-07-03T13:58:25;3.47;;;1.00;;
20320;SDS011;10318;47.674;9.052;2022-07-03T14:00:52;1.45;;;0.80;;
20320;SDS011;10318;47.674;9.052;2022-07-03T14:03:20;1.92;;;1.00;;
20320;SDS011;10318;47.674;9.052;2022-07-03T14:05:47;1.73;;;1.10;;
20320;SDS011;10318;47.674;9.052;2022-07-03T14:08:18;3.88;;;0.90;;
20320;SDS011;10318;47.674;9.052;2022-07-03T14:10:44;2.17;;;0.93;;
20320;SDS011;10318;47.674;9.052;2022-07-03T14:13:15;1.05;;;0.80;;
20320;SDS011;10318;47.674;9.052;2022-07-03T14:15:42;3.65;;;0.80;;
20320;SDS011;10318;47.674;9.052;2022-07-03T14:18:09;1.52;;;0.90;;
20320;SDS011;10318;47.674;9.052;2022-07-03T14:20:35;1.20;;;0.90;;
20320;SDS011;10318;47.674;9.052;2022-07-03T14:23:02;1.02;;;0.80;;
20320;SDS011;10318;47.674;9.052;2022-07-03T14:25:29;1.58;;;0.90;;
20320;SDS011;10318;47.674;9.052;2022-07-03T14:27:55;3.10;;;0.70;;
20320;SDS011;10318;47.674;9.052;2022-07-03T14:30:41;1.42;;;1.20;;
20320;SDS011;10318;47.674;9.052;2022-07-03T14:33:30;1.30;;;1.00;;
20320;SDS011;10318;47.674;9.052;2022-07-03T14:35:57;1.55;;;0.68;;
20320;SDS011;10318;47.674;9.052;2022-07-03T14:38:29;1.65;;;0.75;;
20320;SDS011;10318;47.674;9.052;2022-07-03T14:40:56;1.17;;;0.90;;
20320;SDS011;10318;47.674;9.052;2022-07-03T14:43:22;1.13;;;0.80;;
20320;SDS011;10318;47.674;9.052;2022-07-03T14:45:49;1.40;;;0.90;;
20320;SDS011;10318;47.674;9.052;2022-07-03T14:48:16;3.65;;;1.13;;
20320;SDS011;10318;47.674;9.052;2022-07-03T14:50:42;1.70;;;0.80;;
20320;SDS011;10318;47.674;9.052;2022-07-03T14:53:16;1.45;;;0.80;;
20320;SDS011;10318;47.674;9.052;2022-07-03T14:55:43;4.35;;;1.20;;
20320;SDS011;10318;47.674;9.052;2022-07-03T14:58:13;3.55;;;0.82;;
20320;SDS011;10318;47.674;9.052;2022-07-03T15:00:42;2.63;;;1.10;;
20320;SDS011;10318;47.674;9.052;2022-07-03T15:03:16;2.67;;;1.17;;
20320;SDS011;10318;47.674;9.052;2022-07-03T15:05:45;4.18;;;0.98;;
20320;SDS011;10318;47.674;9.052;2022-07-03T15:11:59;1.00;;;0.68;;
20320;SDS011;10318;47.674;9.052;2022-07-03T15:14:12;3.45;;;0.90;;
20320;SDS011;10318;47.674;9.052;2022-07-03T15:16:40;3.13;;;0.98;;
20320;SDS011;10318;47.674;9.052;2022-07-03T15:19:08;2.70;;;1.13;;
20320;SDS011;10318;47.674;9.052;2022-07-03T15:21:36;2.58;;;1.05;;
20320;SDS011;10318;47.674;9.052;2022-07-03T15:24:05;1.60;;;1.45;;
20320;SDS011;10318;47.674;9.052;2022-07-03T15:26:32;5.40;;;1.00;;
20320;SDS011;10318;47.674;9.052;2022-07-03T15:29:00;2.47;;;1.15;;
20320;SDS011;10318;47.674;9.052;2022-07-03T15:31:28;3.30;;;1.20;;
20320;SDS011;10318;47.674;9.052;2022-07-03T15:33:55;1.33;;;0.90;;
20320;SDS011;10318;47.674;9.052;2022-07-03T15:36:23;1.17;;;0.90;;
20320;SDS011;10318;47.674;9.052;2022-07-03T15:38:58;1.77;;;1.27;;
20320;SDS011;10318;47.674;9.052;2022-07-03T15:41:28;4.15;;;1.10;;
20320;SDS011;10318;47.674;9.052;2022-07-03T15:46:39;1.42;;;0.88;;
20320;SDS011;10318;47.674;9.052;2022-07-03T15:49:23;2.33;;;0.80;;
20320;SDS011;10318;47.674;9.052;2022-07-03T15:52:03;4.10;;;1.48;;
20320;SDS011;10318;47.674;9.052;2022-07-03T15:54:52;3.92;;;1.10;;
20320;SDS011;10318;47.674;9.052;2022-07-03T15:59:49;2.33;;;1.05;;
20320;SDS011;10318;47.674;9.052;2022-07-03T16:02:20;4.50;;;1.20;;
20320;SDS011;10318;47.674;9.052;2022-07-03T16:04:51;1.42;;;1.20;;
20320;SDS011;10318;47.674;9.052;2022-07-03T16:07:23;2.50;;;1.33;;
20320;SDS011;10318;47.674;9.052;2022-07-03T16:09:51;1.17;;;1.08;;
20320;SDS011;10318;47.674;9.052;2022-07-03T16:12:18;1.65;;;1.10;;
20320;SDS011;10318;47.674;9.052;2022-07-03T16:14:50;3.13;;;1.50;;
20320;SDS011;10318;47.674;9.052;2022-07-03T16:17:17;2.40;;;1.20;;
20320;SDS011;10318;47.674;9.052;2022-07-03T16:19:45;2.10;;;1.10;;
20320;SDS011;10318;47.674;9.052;2022-07-03T16:22:12;1.83;;;0.88;;
20320;SDS011;10318;47.674;9.052;2022-07-03T16:24:42;1.75;;;1.00;;
20320;SDS011;10318;47.674;9.052;2022-07-03T16:27:11;8.63;;;1.20;;